createdAt,value
2018-11-05T00:01:59.367Z,27.60
2018-11-05T00:04:26.941Z,27.00
2018-11-05T00:06:54.689Z,28.40
2018-11-05T00:09:22.317Z,28.13
2018-11-05T00:11:49.950Z,29.27
2018-11-05T00:14:19.280Z,29.00
2018-11-05T00:16:48.439Z,32.70
2018-11-05T00:19:17.721Z,33.43
2018-11-05T00:21:47.876Z,33.87
2018-11-05T00:24:15.920Z,34.23
2018-11-05T00:26:44.068Z,34.73
2018-11-05T00:29:11.939Z,33.10
2018-11-05T00:31:39.723Z,38.10
2018-11-05T00:34:07.898Z,36.83
2018-11-05T00:36:35.496Z,37.03
2018-11-05T00:39:04.463Z,38.63
2018-11-05T00:41:32.096Z,38.40
2018-11-05T00:43:59.706Z,40.17
2018-11-05T00:46:27.265Z,39.90
2018-11-05T00:48:54.963Z,39.60
2018-11-05T00:51:23.856Z,40.40
2018-11-05T00:53:51.454Z,40.27
2018-11-05T00:56:19.132Z,39.80
2018-11-05T00:58:46.607Z,40.93
2018-11-05T01:01:14.070Z,39.60
2018-11-05T01:03:41.546Z,43.53
2018-11-05T01:06:09.119Z,40.90
2018-11-05T01:09:39.961Z,44.27
2018-11-05T01:12:07.453Z,43.43
2018-11-05T01:14:34.942Z,44.57
2018-11-05T01:17:02.506Z,44.00
2018-11-05T01:19:29.971Z,44.40
2018-11-05T01:21:57.422Z,45.93
2018-11-05T01:24:25.009Z,46.97
2018-11-05T01:26:52.515Z,48.23
2018-11-05T01:29:20.049Z,47.03
2018-11-05T01:31:47.571Z,47.47
2018-11-05T01:34:15.180Z,46.30
2018-11-05T01:36:42.737Z,48.10
2018-11-05T01:39:10.818Z,47.47
2018-11-05T01:41:38.340Z,47.57
2018-11-05T01:44:05.893Z,48.07
2018-11-05T01:46:33.422Z,45.37
2018-11-05T01:49:01.088Z,49.27
2018-11-05T01:51:28.696Z,46.53
2018-11-05T01:53:56.316Z,50.00
2018-11-05T01:56:23.844Z,49.13
2018-11-05T01:58:51.403Z,51.73
2018-11-05T02:01:19.102Z,48.37
2018-11-05T02:03:46.613Z,50.20
2018-11-05T02:06:14.262Z,48.80
2018-11-05T02:08:41.757Z,49.50
2018-11-05T02:11:09.281Z,47.47
2018-11-05T02:13:36.813Z,50.57
2018-11-05T02:16:04.395Z,52.03
2018-11-05T02:18:31.846Z,51.60
2018-11-05T02:20:59.346Z,53.07
2018-11-05T02:23:26.931Z,51.27
2018-11-05T02:25:54.473Z,52.03
2018-11-05T02:28:21.993Z,50.33
2018-11-05T02:30:50.004Z,50.80
2018-11-05T02:33:17.481Z,51.17
2018-11-05T02:35:45.056Z,53.33
2018-11-05T02:38:12.524Z,52.30
2018-11-05T02:40:40.053Z,51.00
2018-11-05T02:43:07.570Z,51.37
2018-11-05T02:45:36.083Z,53.97
2018-11-05T02:48:03.649Z,52.10
2018-11-05T02:50:31.154Z,53.17
2018-11-05T02:52:58.621Z,53.17
2018-11-05T02:55:27.130Z,53.93
2018-11-05T02:57:54.623Z,54.00
2018-11-05T03:00:22.141Z,55.97
2018-11-05T03:02:49.642Z,54.40
2018-11-05T03:05:18.346Z,52.90
2018-11-05T03:07:46.542Z,55.20
2018-11-05T03:10:14.223Z,52.67
2018-11-05T03:12:42.431Z,53.63
2018-11-05T03:15:11.469Z,55.67
2018-11-05T03:17:39.341Z,53.53
2018-11-05T03:20:08.226Z,54.67
2018-11-05T03:22:35.919Z,54.43
2018-11-05T03:25:03.796Z,55.80
2018-11-05T03:27:31.316Z,55.43
2018-11-05T03:29:58.795Z,53.37
2018-11-05T03:32:26.378Z,53.07
2018-11-05T03:34:53.868Z,52.20
2018-11-05T03:37:21.403Z,58.27
2018-11-05T03:39:48.991Z,56.43
2018-11-05T03:42:16.559Z,58.30
2018-11-05T03:44:44.101Z,56.17
2018-11-05T03:47:11.677Z,54.03
2018-11-05T03:49:39.200Z,57.53
2018-11-05T03:52:06.753Z,56.97
2018-11-05T03:54:35.280Z,57.10
2018-11-05T03:57:02.761Z,55.37
2018-11-05T03:59:30.367Z,54.90
2018-11-05T04:01:57.851Z,54.77
2018-11-05T04:04:25.407Z,57.87
2018-11-05T04:06:52.925Z,56.30
2018-11-05T04:09:20.431Z,53.30
2018-11-05T04:11:48.237Z,56.17
2018-11-05T04:14:15.736Z,54.90
2018-11-05T04:16:43.212Z,58.90
2018-11-05T04:19:10.768Z,57.17
2018-11-05T04:21:43.093Z,56.90
2018-11-05T04:24:11.765Z,57.07
2018-11-05T04:26:40.308Z,58.43
2018-11-05T04:29:08.068Z,58.90
2018-11-05T04:31:35.695Z,59.80
2018-11-05T04:34:03.226Z,57.20
2018-11-05T04:36:30.767Z,56.70
2018-11-05T04:38:58.285Z,56.87
2018-11-05T04:41:25.778Z,57.90
2018-11-05T04:43:53.408Z,56.43
2018-11-05T04:46:20.861Z,59.20
2018-11-05T04:48:48.335Z,56.50
2018-11-05T04:51:15.830Z,58.40
2018-11-05T04:53:43.358Z,57.87
2018-11-05T04:56:10.850Z,55.90
2018-11-05T04:58:38.329Z,55.60
2018-11-05T05:01:05.865Z,55.73
2018-11-05T05:03:33.338Z,53.97
2018-11-05T05:06:00.889Z,54.03
2018-11-05T05:08:28.369Z,53.10
2018-11-05T05:10:55.862Z,54.00
2018-11-05T05:13:23.363Z,49.30
2018-11-05T05:15:50.965Z,51.00
2018-11-05T05:18:18.498Z,49.97
2018-11-05T05:20:46.141Z,50.73
2018-11-05T05:23:13.578Z,50.50
2018-11-05T05:25:41.192Z,50.00
2018-11-05T05:28:08.672Z,46.93
2018-11-05T05:30:36.177Z,45.87
2018-11-05T05:33:04.849Z,46.97
2018-11-05T05:35:32.333Z,46.53
2018-11-05T05:37:59.842Z,42.90
2018-11-05T05:40:27.343Z,44.17
2018-11-05T05:42:54.911Z,46.83
2018-11-05T05:45:22.407Z,44.00
2018-11-05T05:47:49.912Z,47.13
2018-11-05T05:50:17.706Z,46.00
2018-11-05T05:52:46.571Z,44.27
2018-11-05T05:55:14.262Z,46.80
2018-11-05T05:57:41.928Z,46.77
2018-11-05T06:00:11.594Z,45.07
2018-11-05T06:02:39.364Z,46.07
2018-11-05T06:05:07.831Z,46.53
2018-11-05T06:07:35.399Z,45.43
2018-11-05T06:10:03.073Z,47.13
2018-11-05T06:12:30.569Z,46.90
2018-11-05T06:14:58.015Z,46.17
2018-11-05T06:17:25.520Z,45.83
2018-11-05T06:19:53.108Z,46.57
2018-11-05T06:22:20.625Z,47.33
2018-11-05T06:24:48.136Z,45.70
2018-11-05T06:27:15.665Z,46.80
2018-11-05T06:29:43.182Z,46.67
2018-11-05T06:32:10.709Z,44.90
2018-11-05T06:34:38.505Z,41.50
2018-11-05T06:37:06.443Z,41.93
2018-11-05T06:39:33.949Z,41.53
2018-11-05T06:42:01.550Z,43.03
2018-11-05T06:44:29.069Z,43.40
2018-11-05T06:46:56.573Z,43.87
2018-11-05T06:49:24.055Z,42.27
2018-11-05T06:51:51.539Z,43.20
2018-11-05T06:54:19.077Z,42.33
2018-11-05T06:56:46.637Z,42.23
2018-11-05T06:59:14.984Z,41.60
2018-11-05T07:01:42.505Z,42.20
2018-11-05T07:04:09.921Z,42.80
2018-11-05T07:06:37.392Z,40.90
2018-11-05T07:09:07.984Z,44.00
2018-11-05T07:11:35.595Z,41.23
2018-11-05T07:14:03.288Z,43.20
2018-11-05T07:16:30.777Z,41.37
2018-11-05T07:18:58.554Z,41.50
2018-11-05T07:21:25.832Z,42.17
2018-11-05T07:23:53.346Z,40.13
2018-11-05T07:26:20.960Z,42.37
2018-11-05T07:28:49.508Z,40.80
2018-11-05T07:31:16.956Z,40.70
2018-11-05T07:33:44.638Z,43.67
2018-11-05T07:36:12.160Z,40.90
2018-11-05T07:38:39.707Z,42.40
2018-11-05T07:41:07.287Z,46.17
2018-11-05T07:43:34.792Z,46.90
2018-11-05T07:46:02.290Z,46.07
2018-11-05T07:48:29.894Z,43.10
2018-11-05T07:50:57.412Z,45.17
2018-11-05T07:53:24.982Z,43.67
2018-11-05T07:55:52.525Z,45.30
2018-11-05T07:58:20.138Z,43.17
2018-11-05T08:00:48.517Z,43.83
2018-11-05T08:03:17.131Z,44.37
2018-11-05T08:05:44.580Z,44.13
2018-11-05T08:08:12.201Z,43.80
2018-11-05T08:10:39.753Z,44.80
2018-11-05T08:13:07.297Z,45.67
2018-11-05T08:15:34.895Z,45.50
2018-11-05T08:18:02.454Z,43.33
2018-11-05T08:20:30.114Z,43.93
2018-11-05T08:22:57.740Z,43.70
2018-11-05T08:25:25.392Z,45.10
2018-11-05T08:27:53.030Z,44.40
2018-11-05T08:30:22.747Z,43.33
2018-11-05T08:32:50.288Z,44.00
2018-11-05T08:35:17.925Z,44.47
2018-11-05T08:37:46.327Z,43.40
2018-11-05T08:40:18.002Z,41.67
2018-11-05T08:42:46.633Z,42.50
2018-11-05T08:45:15.923Z,44.40
2018-11-05T08:47:43.572Z,43.50
2018-11-05T08:50:13.172Z,44.87
2018-11-05T08:52:40.571Z,44.90
2018-11-05T08:55:10.733Z,45.13
2018-11-05T08:57:38.653Z,46.60
2018-11-05T09:00:14.585Z,46.40
2018-11-05T09:02:42.798Z,46.87
2018-11-05T09:05:10.401Z,47.33
2018-11-05T09:07:37.960Z,47.50
2018-11-05T09:10:06.312Z,45.70
2018-11-05T09:12:34.116Z,46.67
2018-11-05T09:15:01.706Z,44.17
2018-11-05T09:17:29.381Z,47.50
2018-11-05T09:19:56.882Z,47.40
2018-11-05T09:22:24.486Z,47.70
2018-11-05T09:24:51.973Z,47.97
2018-11-05T09:27:19.645Z,47.90
2018-11-05T09:29:47.149Z,46.90
2018-11-05T09:32:14.675Z,47.70
2018-11-05T09:34:42.261Z,49.50
2018-11-05T09:37:09.779Z,48.20
2018-11-05T09:39:37.479Z,50.83
2018-11-05T09:42:06.004Z,49.77
2018-11-05T09:44:33.632Z,49.83
2018-11-05T09:53:57.626Z,50.20
2018-11-05T09:56:26.428Z,54.40
2018-11-05T09:58:53.940Z,53.03
2018-11-05T10:01:21.516Z,53.47
2018-11-05T10:03:55.330Z,51.97
2018-11-05T10:06:23.201Z,55.63
2018-11-05T10:08:50.804Z,52.30
2018-11-05T10:11:18.749Z,53.00
2018-11-05T10:13:46.282Z,54.27
2018-11-05T10:16:13.831Z,48.50
2018-11-05T10:18:41.368Z,53.40
2018-11-05T10:21:08.906Z,51.83
2018-11-05T10:23:36.411Z,51.10
2018-11-05T10:26:04.229Z,49.87
2018-11-05T10:28:31.734Z,51.00
2018-11-05T10:30:59.332Z,47.40
2018-11-05T10:33:26.946Z,47.87
2018-11-05T10:38:33.525Z,52.77
2018-11-05T10:41:01.097Z,53.47
2018-11-05T10:43:28.606Z,51.50
2018-11-05T10:45:56.112Z,48.00
2018-11-05T10:48:23.768Z,49.63
2018-11-05T10:50:51.347Z,50.67
2018-11-05T10:53:18.861Z,49.43
2018-11-05T10:55:46.373Z,50.30
2018-11-05T10:58:14.039Z,49.60
2018-11-05T11:00:47.276Z,52.87
2018-11-05T11:03:16.105Z,51.27
2018-11-05T11:05:43.684Z,53.70
2018-11-05T11:08:11.153Z,52.50
2018-11-05T11:10:38.657Z,51.67
2018-11-05T11:13:06.167Z,48.60
2018-11-05T11:15:33.753Z,49.90
2018-11-05T11:18:01.284Z,45.37
2018-11-05T11:20:28.827Z,44.47
2018-11-05T11:22:56.428Z,43.70
2018-11-05T11:25:23.926Z,44.17
2018-11-05T11:27:52.615Z,43.27
2018-11-05T11:30:20.131Z,43.93
2018-11-05T11:32:48.367Z,43.00
2018-11-05T11:35:15.896Z,42.77
2018-11-05T11:37:43.465Z,42.33
2018-11-05T11:40:14.321Z,41.20
2018-11-05T11:42:43.059Z,40.80
2018-11-05T11:45:11.071Z,41.77
2018-11-05T11:47:38.659Z,40.50
2018-11-05T11:50:08.241Z,40.80
2018-11-05T11:52:35.764Z,39.10
2018-11-05T11:55:03.663Z,40.70
2018-11-05T11:57:31.267Z,40.73
2018-11-05T11:59:58.746Z,42.73
2018-11-05T12:02:26.375Z,43.70
2018-11-05T12:04:53.964Z,43.07
2018-11-05T12:07:21.501Z,42.47
2018-11-05T12:09:49.095Z,41.97
2018-11-05T12:12:16.636Z,42.07
2018-11-05T12:14:44.609Z,41.10
2018-11-05T12:17:11.992Z,40.93
2018-11-05T12:19:39.499Z,41.60
2018-11-05T12:22:07.124Z,40.37
2018-11-05T12:24:34.743Z,44.57
2018-11-05T12:27:02.281Z,41.27
2018-11-05T12:29:29.733Z,39.70
2018-11-05T12:31:57.239Z,41.17
2018-11-05T12:34:24.813Z,42.23
2018-11-05T12:36:52.345Z,42.40
2018-11-05T12:39:19.971Z,40.80
2018-11-05T12:41:47.493Z,43.37
2018-11-05T12:44:15.039Z,41.27
2018-11-05T12:46:42.659Z,40.10
2018-11-05T12:49:10.154Z,41.40
2018-11-05T12:51:37.701Z,39.13
2018-11-05T12:54:05.408Z,40.00
2018-11-05T12:56:32.951Z,39.10
2018-11-05T12:59:00.719Z,38.83
2018-11-05T13:01:29.004Z,42.47
2018-11-05T13:03:56.664Z,41.03
2018-11-05T13:06:24.281Z,42.53
2018-11-05T13:08:51.940Z,43.30
2018-11-05T13:11:19.461Z,40.20
2018-11-05T13:13:46.963Z,42.23
2018-11-05T13:16:14.430Z,39.77
2018-11-05T13:18:41.982Z,41.17
2018-11-05T13:21:09.571Z,41.80
2018-11-05T13:23:42.662Z,40.67
2018-11-05T13:26:10.814Z,40.27
2018-11-05T13:28:38.448Z,41.83
2018-11-05T13:31:06.113Z,41.00
2018-11-05T13:33:33.662Z,41.10
2018-11-05T13:36:01.188Z,40.77
2018-11-05T13:38:28.733Z,42.20
2018-11-05T13:40:56.234Z,42.83
2018-11-05T13:43:23.774Z,43.57
2018-11-05T13:45:51.504Z,43.37
2018-11-05T13:48:18.987Z,44.33
2018-11-05T13:50:46.320Z,42.37
2018-11-05T13:53:13.890Z,42.07
2018-11-05T13:55:41.436Z,42.03
2018-11-05T13:59:33.537Z,44.77
2018-11-05T14:02:01.150Z,44.50
2018-11-05T14:04:28.682Z,54.07
2018-11-05T14:06:56.210Z,48.10
2018-11-05T14:09:23.682Z,43.13
2018-11-05T14:11:51.304Z,44.30
2018-11-05T14:14:18.825Z,43.33
2018-11-05T14:16:46.442Z,42.90
2018-11-05T14:19:13.921Z,44.53
2018-11-05T14:21:41.501Z,46.57
2018-11-05T14:24:08.999Z,46.80
2018-11-05T14:26:36.529Z,43.77
2018-11-05T14:29:04.395Z,43.07
2018-11-05T14:31:31.852Z,45.40
2018-11-05T14:33:59.320Z,45.07
2018-11-05T14:36:26.840Z,43.23
2018-11-05T14:38:54.343Z,44.53
2018-11-05T14:41:21.912Z,43.67
2018-11-05T14:43:49.511Z,46.47
2018-11-05T14:46:17.140Z,47.93
2018-11-05T14:48:44.745Z,46.03
2018-11-05T14:51:12.264Z,45.30
2018-11-05T14:53:39.717Z,46.80
2018-11-05T14:56:07.769Z,47.23
2018-11-05T14:58:35.333Z,46.10
2018-11-05T15:01:02.915Z,44.90
2018-11-05T15:03:30.442Z,47.23
2018-11-05T15:05:57.954Z,47.67
2018-11-05T15:08:25.532Z,47.93
2018-11-05T15:10:53.034Z,51.27
2018-11-05T15:13:20.534Z,48.57
2018-11-05T15:15:48.086Z,49.20
2018-11-05T15:18:15.535Z,48.67
2018-11-05T15:20:43.044Z,48.53
2018-11-05T15:23:10.584Z,51.20
2018-11-05T15:25:38.163Z,52.57
2018-11-05T15:28:05.623Z,50.73
2018-11-05T15:30:33.198Z,54.10
2018-11-05T15:33:00.725Z,52.73
2018-11-05T15:35:28.254Z,52.00
2018-11-05T15:37:55.889Z,54.73
2018-11-05T15:40:23.424Z,51.70
2018-11-05T15:42:51.008Z,51.90
2018-11-05T15:45:19.889Z,49.87
2018-11-05T15:47:47.467Z,52.90
2018-11-05T15:51:18.415Z,57.37
2018-11-05T15:53:45.967Z,57.00
2018-11-05T15:56:13.578Z,55.83
2018-11-05T15:58:41.182Z,56.87
2018-11-05T16:01:08.766Z,55.30
2018-11-05T16:03:36.300Z,60.33
2018-11-05T16:06:03.935Z,62.37
2018-11-05T16:08:31.512Z,62.30
2018-11-05T16:10:59.096Z,61.33
2018-11-05T16:13:26.684Z,59.43
2018-11-05T16:15:54.227Z,60.70
2018-11-05T16:18:21.779Z,59.73
2018-11-05T16:20:49.596Z,59.80
2018-11-05T16:23:17.176Z,58.83
2018-11-05T16:25:44.911Z,58.00
2018-11-05T16:28:12.517Z,62.40
2018-11-05T16:30:40.119Z,61.57
2018-11-05T16:33:07.651Z,61.10
2018-11-05T16:35:35.294Z,63.40
2018-11-05T16:38:02.815Z,62.80
2018-11-05T16:40:30.392Z,65.90
2018-11-05T16:42:57.845Z,64.63
2018-11-05T16:45:25.327Z,64.47
2018-11-05T16:47:54.248Z,61.07
2018-11-05T16:50:24.546Z,68.00
2018-11-05T16:52:52.062Z,65.70
2018-11-05T16:55:19.557Z,64.53
2018-11-05T16:57:47.157Z,68.20
2018-11-05T17:00:14.923Z,65.67
2018-11-05T17:02:43.220Z,66.90
2018-11-05T17:05:11.582Z,68.17
2018-11-05T17:07:39.176Z,66.60
2018-11-05T17:10:08.057Z,67.20
2018-11-05T17:12:35.822Z,73.27
2018-11-05T17:15:03.868Z,69.77
2018-11-05T17:17:31.605Z,69.70
2018-11-05T17:19:59.262Z,71.33
2018-11-05T17:22:26.800Z,67.23
2018-11-05T17:24:54.372Z,71.20
2018-11-05T17:27:21.951Z,68.23
2018-11-05T17:29:49.513Z,70.00
2018-11-05T17:32:17.016Z,73.23
2018-11-05T17:34:44.648Z,73.23
2018-11-05T17:37:12.339Z,73.47
2018-11-05T17:39:39.861Z,74.77
2018-11-05T17:42:07.344Z,74.97
2018-11-05T17:44:35.059Z,70.47
2018-11-05T17:47:02.690Z,69.00
2018-11-05T17:49:30.152Z,68.40
2018-11-05T17:51:57.714Z,69.20
2018-11-05T17:54:25.220Z,70.77
2018-11-05T17:56:52.828Z,72.87
2018-11-05T17:59:20.368Z,74.90
2018-11-05T18:01:47.977Z,71.87
2018-11-05T18:04:15.494Z,73.97
2018-11-05T18:06:43.104Z,73.40
2018-11-05T18:09:10.678Z,69.70
2018-11-05T18:11:38.327Z,72.53
2018-11-05T18:14:05.933Z,70.00
2018-11-05T18:16:33.448Z,70.43
2018-11-05T18:19:01.056Z,68.10
2018-11-05T18:21:28.575Z,69.90
2018-11-05T18:23:56.215Z,70.90
2018-11-05T18:26:23.704Z,66.10
2018-11-05T18:28:51.369Z,69.60
2018-11-05T18:31:19.946Z,69.20
2018-11-05T18:33:48.107Z,68.77
2018-11-05T18:36:16.254Z,68.80
2018-11-05T18:38:44.330Z,65.90
2018-11-05T18:41:19.777Z,66.60
2018-11-05T18:48:11.886Z,66.87
2018-11-05T18:50:44.874Z,62.57
2018-11-05T18:53:17.432Z,62.67
2018-11-05T18:55:50.655Z,62.60
2018-11-05T18:58:30.580Z,67.77
2018-11-05T19:01:05.822Z,62.70
2018-11-05T19:03:39.598Z,62.03
2018-11-05T19:06:11.738Z,62.97
2018-11-05T19:08:43.653Z,63.93
2018-11-05T19:11:18.970Z,60.70
2018-11-05T19:13:51.373Z,59.40
2018-11-05T19:16:23.100Z,59.70
2018-11-05T19:18:55.679Z,61.50
2018-11-05T19:21:27.542Z,61.40
2018-11-05T19:23:59.485Z,66.57
2018-11-05T19:26:34.790Z,65.23
2018-11-05T19:29:08.454Z,64.20
2018-11-05T19:31:43.489Z,61.00
2018-11-05T19:34:16.863Z,61.70
2018-11-05T19:36:53.046Z,63.23
2018-11-05T19:39:24.225Z,63.33
2018-11-05T19:41:56.896Z,64.30
2018-11-05T19:44:29.810Z,62.80
2018-11-05T19:46:58.597Z,66.70
2018-11-05T19:49:27.478Z,67.40
2018-11-05T19:51:55.169Z,65.33
2018-11-05T19:54:23.980Z,69.40
2018-11-05T19:56:51.540Z,65.57
2018-11-05T19:59:19.239Z,63.80
2018-11-05T20:01:46.811Z,62.60
2018-11-05T20:04:14.460Z,61.50
2018-11-05T20:06:41.992Z,58.10
2018-11-05T20:09:09.907Z,57.73
2018-11-05T20:11:37.896Z,60.17
2018-11-05T20:14:05.635Z,63.20
2018-11-05T20:16:33.429Z,69.03
2018-11-05T20:19:01.238Z,65.30
2018-11-05T20:21:28.832Z,66.00
2018-11-05T20:23:56.432Z,64.90
2018-11-05T20:26:24.226Z,66.37
2018-11-05T20:28:51.763Z,62.83
2018-11-05T20:31:19.520Z,66.60
2018-11-05T20:33:46.902Z,65.10
2018-11-05T20:36:14.443Z,66.20
2018-11-05T20:38:41.937Z,62.90
2018-11-05T20:41:09.514Z,64.50
2018-11-05T20:43:37.268Z,65.27
2018-11-05T20:46:05.012Z,61.83
2018-11-05T20:48:32.638Z,62.90
2018-11-05T20:51:00.188Z,59.33
2018-11-05T20:53:27.724Z,60.13
2018-11-05T20:55:55.271Z,63.10
2018-11-05T20:58:22.872Z,59.10
2018-11-05T21:00:50.423Z,58.40
2018-11-05T21:03:17.974Z,60.27
2018-11-05T21:05:45.555Z,66.60
2018-11-05T21:08:13.072Z,67.77
2018-11-05T21:10:40.630Z,60.27
2018-11-05T21:13:08.213Z,62.57
2018-11-05T21:15:35.780Z,62.80
2018-11-05T21:18:03.437Z,68.20
2018-11-05T21:20:31.017Z,65.00
2018-11-05T21:22:58.660Z,65.80
2018-11-05T21:25:26.163Z,66.93
2018-11-05T21:27:53.691Z,73.10
2018-11-05T21:30:21.533Z,70.13
2018-11-05T21:32:49.186Z,68.20
2018-11-05T21:35:18.001Z,68.17
2018-11-05T21:37:45.588Z,63.63
2018-11-05T21:40:14.326Z,69.37
2018-11-05T21:42:41.884Z,66.43
2018-11-05T21:45:10.764Z,61.47
2018-11-05T21:47:38.787Z,63.00
2018-11-05T21:50:09.117Z,59.30
2018-11-05T21:52:37.027Z,58.07
2018-11-05T21:55:05.291Z,58.10
2018-11-05T21:57:32.892Z,55.07
2018-11-05T22:00:00.506Z,59.37
2018-11-05T22:02:27.999Z,57.80
2018-11-05T22:04:55.776Z,56.30
2018-11-05T22:07:23.329Z,54.67
2018-11-05T22:09:50.820Z,55.10
2018-11-05T22:12:18.502Z,53.97
2018-11-05T22:14:46.032Z,53.10
2018-11-05T22:17:13.630Z,49.80
2018-11-05T22:19:41.169Z,55.07
2018-11-05T22:22:09.002Z,51.87
2018-11-05T22:24:36.500Z,47.87
2018-11-05T22:27:04.121Z,47.80
2018-11-05T22:29:31.622Z,51.80
2018-11-05T22:31:59.104Z,55.60
2018-11-05T22:34:26.776Z,49.57
2018-11-05T22:36:54.348Z,48.13
2018-11-05T22:39:21.973Z,49.37
2018-11-05T22:41:49.535Z,49.63
2018-11-05T22:44:17.244Z,46.93
2018-11-05T22:46:44.801Z,47.83
2018-11-05T22:49:12.403Z,47.63
2018-11-05T22:51:39.954Z,47.87
2018-11-05T22:54:07.459Z,47.27
2018-11-05T22:56:35.020Z,49.17
2018-11-05T22:59:02.559Z,50.80
2018-11-05T23:01:35.713Z,51.60
2018-11-05T23:04:03.368Z,47.13
2018-11-05T23:06:31.559Z,47.47
2018-11-05T23:08:59.120Z,48.20
2018-11-05T23:11:27.646Z,46.63
2018-11-05T23:13:55.196Z,48.40
2018-11-05T23:16:22.993Z,45.70
2018-11-05T23:18:50.560Z,49.27
2018-11-05T23:21:18.129Z,49.27
2018-11-05T23:23:45.690Z,49.63
2018-11-05T23:26:13.212Z,45.80
2018-11-05T23:28:40.779Z,46.67
2018-11-05T23:31:09.911Z,51.93
2018-11-05T23:33:37.570Z,47.20
2018-11-05T23:36:05.287Z,50.30
2018-11-05T23:38:32.913Z,46.90
2018-11-05T23:41:00.575Z,47.97
2018-11-05T23:43:28.142Z,48.27
2018-11-05T23:45:55.632Z,44.50
2018-11-05T23:48:23.199Z,45.67
2018-11-05T23:50:50.771Z,45.27
2018-11-05T23:53:18.366Z,43.60
2018-11-05T23:55:45.855Z,43.80
2018-11-05T23:58:13.493Z,44.53
